createdAt,value
2017-09-15T00:00:57.145Z,52.30
2017-09-15T00:03:23.398Z,53.20
2017-09-15T00:05:49.733Z,52.39
2017-09-15T00:08:16.272Z,52.30
2017-09-15T00:10:42.705Z,52.71
2017-09-15T00:13:09.025Z,52.79
2017-09-15T00:15:35.250Z,52.60
2017-09-15T00:18:01.499Z,52.44
2017-09-15T00:20:27.818Z,52.19
2017-09-15T00:22:54.154Z,52.02
2017-09-15T00:25:20.494Z,51.61
2017-09-15T00:27:46.937Z,51.53
2017-09-15T00:30:13.266Z,51.68
2017-09-15T00:32:39.583Z,52.12
2017-09-15T00:35:05.931Z,52.68
2017-09-15T00:37:32.262Z,52.88
2017-09-15T00:39:58.675Z,53.06
2017-09-15T00:42:25.220Z,54.21
2017-09-15T00:44:52.277Z,53.88
2017-09-15T00:47:18.492Z,54.19
2017-09-15T00:49:44.822Z,55.17
2017-09-15T00:52:11.076Z,55.46
2017-09-15T00:54:37.305Z,55.59
2017-09-15T00:57:03.636Z,55.57
2017-09-15T00:59:29.977Z,56.35
2017-09-15T01:01:56.499Z,56.24
2017-09-15T01:04:22.738Z,56.24
2017-09-15T01:06:49.073Z,55.62
2017-09-15T01:09:15.393Z,55.48
2017-09-15T01:11:42.321Z,55.08
2017-09-15T01:14:08.671Z,55.05
2017-09-15T01:16:35.004Z,55.10
2017-09-15T01:19:01.336Z,55.04
2017-09-15T01:21:27.558Z,56.00
2017-09-15T01:23:53.801Z,55.84
2017-09-15T01:26:20.111Z,55.49
2017-09-15T01:28:46.446Z,55.47
2017-09-15T01:31:12.787Z,55.26
2017-09-15T01:33:39.541Z,55.18
2017-09-15T01:36:05.872Z,55.35
2017-09-15T01:38:32.100Z,55.42
2017-09-15T01:40:58.424Z,55.15
2017-09-15T01:43:24.843Z,55.27
2017-09-15T01:45:51.094Z,55.33
2017-09-15T01:48:17.419Z,55.25
2017-09-15T01:50:43.741Z,55.17
2017-09-15T01:53:09.979Z,55.11
2017-09-15T01:55:36.219Z,54.96
2017-09-15T01:58:02.945Z,55.20
2017-09-15T02:00:29.283Z,55.17
2017-09-15T02:02:55.614Z,55.55
2017-09-15T02:05:21.833Z,55.66
2017-09-15T02:07:48.166Z,55.88
2017-09-15T02:10:14.824Z,56.06
2017-09-15T02:12:41.657Z,56.20
2017-09-15T02:15:08.005Z,56.34
2017-09-15T02:17:34.332Z,56.77
2017-09-15T02:20:00.562Z,57.29
2017-09-15T02:22:27.008Z,57.85
2017-09-15T02:24:53.332Z,58.96
2017-09-15T02:27:19.641Z,59.77
2017-09-15T02:29:45.986Z,60.11
2017-09-15T02:32:12.315Z,60.30
2017-09-15T02:34:38.667Z,60.94
2017-09-15T02:37:05.406Z,61.79
2017-09-15T02:39:31.728Z,62.39
2017-09-15T02:41:58.253Z,63.27
2017-09-15T02:44:24.605Z,63.08
2017-09-15T02:46:51.019Z,63.44
2017-09-15T02:49:17.366Z,63.90
2017-09-15T02:51:43.805Z,64.16
2017-09-15T02:54:10.123Z,65.52
2017-09-15T02:56:36.468Z,66.84
2017-09-15T02:59:02.792Z,67.18
2017-09-15T03:01:29.025Z,67.55
2017-09-15T03:03:55.368Z,67.12
2017-09-15T03:06:22.006Z,68.32
2017-09-15T03:08:48.221Z,69.59
2017-09-15T03:11:14.548Z,69.79
2017-09-15T03:13:41.402Z,70.30
2017-09-15T03:16:07.951Z,70.52
2017-09-15T03:18:34.272Z,70.87
2017-09-15T03:21:00.598Z,70.85
2017-09-15T03:23:26.933Z,71.20
2017-09-15T03:25:53.154Z,71.59
2017-09-15T03:28:19.589Z,71.59
2017-09-15T03:30:45.838Z,71.67
2017-09-15T03:33:12.170Z,71.24
2017-09-15T03:35:38.499Z,71.72
2017-09-15T03:38:04.727Z,69.17
2017-09-15T03:40:31.056Z,68.26
2017-09-15T03:42:57.379Z,67.70
2017-09-15T03:45:23.622Z,67.45
2017-09-15T03:47:50.060Z,67.26
2017-09-15T03:50:16.471Z,67.41
2017-09-15T03:52:42.908Z,67.55
2017-09-15T03:55:09.167Z,67.40
2017-09-15T03:57:35.485Z,67.69
2017-09-15T04:00:01.910Z,67.47
2017-09-15T04:02:28.460Z,67.93
2017-09-15T04:04:54.923Z,67.80
2017-09-15T04:07:21.323Z,67.80
2017-09-15T04:09:47.652Z,67.83
2017-09-15T04:12:14.406Z,67.98
2017-09-15T04:14:41.230Z,67.70
2017-09-15T04:17:07.586Z,67.60
2017-09-15T04:19:34.138Z,67.83
2017-09-15T04:22:00.483Z,67.46
2017-09-15T04:24:26.667Z,67.87
2017-09-15T04:26:52.909Z,67.28
2017-09-15T04:29:19.229Z,67.21
2017-09-15T04:31:45.558Z,67.16
2017-09-15T04:34:11.785Z,66.80
2017-09-15T04:36:38.070Z,66.12
2017-09-15T04:39:04.442Z,64.11
2017-09-15T04:41:30.686Z,62.51
2017-09-15T04:43:57.226Z,60.91
2017-09-15T04:46:23.451Z,60.06
2017-09-15T04:48:50.107Z,57.53
2017-09-15T04:51:16.414Z,56.29
2017-09-15T04:53:42.970Z,55.72
2017-09-15T04:56:09.249Z,54.11
2017-09-15T04:58:35.935Z,52.02
2017-09-15T05:01:02.441Z,51.13
2017-09-15T05:03:28.849Z,50.99
2017-09-15T05:05:55.030Z,50.74
2017-09-15T05:08:21.385Z,50.40
2017-09-15T05:10:47.791Z,49.28
2017-09-15T05:13:14.046Z,48.18
2017-09-15T05:15:40.468Z,46.81
2017-09-15T05:18:06.805Z,45.88
2017-09-15T05:20:33.228Z,46.71
2017-09-15T05:22:59.749Z,49.11
2017-09-15T05:25:26.112Z,48.17
2017-09-15T05:27:52.857Z,49.83
2017-09-15T05:30:19.087Z,50.50
2017-09-15T05:32:45.903Z,49.06
2017-09-15T05:35:12.145Z,48.75
2017-09-15T05:37:38.487Z,46.40
2017-09-15T05:40:05.132Z,43.59
2017-09-15T05:42:31.671Z,44.92
2017-09-15T05:44:57.984Z,43.01
2017-09-15T05:47:24.207Z,43.42
2017-09-15T05:49:50.541Z,43.25
2017-09-15T05:52:16.788Z,44.60
2017-09-15T05:54:43.119Z,45.01
2017-09-15T05:57:09.754Z,45.07
2017-09-15T05:59:35.980Z,43.40
2017-09-15T06:02:02.206Z,42.68
2017-09-15T06:04:28.482Z,40.55
2017-09-15T06:06:54.985Z,41.23
2017-09-15T06:09:21.296Z,42.16
2017-09-15T06:11:47.749Z,45.03
2017-09-15T06:14:13.959Z,45.08
2017-09-15T06:16:40.520Z,45.53
2017-09-15T06:19:06.731Z,44.23
2017-09-15T06:21:33.184Z,43.67
2017-09-15T06:23:59.801Z,44.19
2017-09-15T06:26:26.257Z,43.90
2017-09-15T06:28:52.580Z,43.92
2017-09-15T06:31:19.311Z,45.16
2017-09-15T06:33:45.970Z,44.11
2017-09-15T06:36:12.718Z,42.64
2017-09-15T06:38:38.996Z,41.52
2017-09-15T06:41:05.226Z,40.72
2017-09-15T06:43:31.564Z,40.67
2017-09-15T06:45:57.793Z,41.33
2017-09-15T06:48:24.880Z,40.78
2017-09-15T06:50:51.192Z,40.53
2017-09-15T06:53:17.337Z,41.59
2017-09-15T06:55:43.544Z,40.55
2017-09-15T06:58:09.855Z,40.50
2017-09-15T07:00:36.153Z,39.00
2017-09-15T07:03:02.768Z,40.29
2017-09-15T07:05:28.946Z,39.34
2017-09-15T07:07:55.255Z,39.45
2017-09-15T07:10:21.574Z,38.84
2017-09-15T07:12:47.817Z,37.67
2017-09-15T07:15:14.057Z,38.10
2017-09-15T07:17:40.302Z,37.14
2017-09-15T07:20:06.499Z,38.07
2017-09-15T07:22:32.768Z,39.39
2017-09-15T07:24:58.954Z,38.49
2017-09-15T07:27:25.245Z,38.98
2017-09-15T07:29:51.487Z,36.75
2017-09-15T07:32:17.699Z,36.40
2017-09-15T07:34:44.003Z,34.32
2017-09-15T07:37:10.203Z,33.03
2017-09-15T07:39:36.661Z,32.96
2017-09-15T07:42:02.961Z,31.73
2017-09-15T07:44:29.388Z,30.66
2017-09-15T07:46:55.694Z,29.90
2017-09-15T07:49:22.267Z,30.10
2017-09-15T07:51:48.589Z,29.77
2017-09-15T07:54:14.790Z,30.23
2017-09-15T07:56:41.407Z,28.75
2017-09-15T07:59:07.717Z,28.74
2017-09-15T08:01:34.013Z,27.44
2017-09-15T08:04:00.595Z,28.32
2017-09-15T08:06:27.715Z,27.81
2017-09-15T08:08:54.026Z,27.49
2017-09-15T08:11:20.208Z,28.24
2017-09-15T08:13:46.418Z,27.72
2017-09-15T08:16:13.227Z,27.21
2017-09-15T08:18:39.515Z,27.79
2017-09-15T08:21:05.736Z,28.53
2017-09-15T08:23:32.040Z,29.26
2017-09-15T08:25:58.198Z,28.26
2017-09-15T08:28:24.816Z,30.53
2017-09-15T08:30:51.048Z,27.37
2017-09-15T08:33:17.264Z,26.56
2017-09-15T08:35:43.596Z,26.43
2017-09-15T08:38:09.927Z,26.69
2017-09-15T08:40:36.487Z,26.50
2017-09-15T08:43:02.750Z,27.79
2017-09-15T08:45:29.061Z,28.89
2017-09-15T08:47:55.404Z,27.46
2017-09-15T08:50:21.623Z,26.88
2017-09-15T08:52:47.840Z,26.51
2017-09-15T08:55:14.214Z,26.99
2017-09-15T08:57:40.506Z,26.62
2017-09-15T09:00:06.717Z,25.10
2017-09-15T09:02:32.947Z,25.43
2017-09-15T09:04:59.152Z,25.21
2017-09-15T09:07:25.506Z,25.65
2017-09-15T09:09:51.726Z,25.25
2017-09-15T09:12:18.275Z,26.09
2017-09-15T09:14:44.601Z,26.97
2017-09-15T09:17:10.817Z,27.19
2017-09-15T09:19:37.359Z,27.49
2017-09-15T09:22:03.673Z,27.07
2017-09-15T09:24:29.932Z,25.61
2017-09-15T09:26:56.364Z,26.20
2017-09-15T09:29:22.585Z,26.61
2017-09-15T09:31:48.945Z,26.91
2017-09-15T09:34:15.676Z,27.30
2017-09-15T09:36:42.103Z,27.80
2017-09-15T09:39:08.432Z,27.73
2017-09-15T09:41:34.746Z,28.29
2017-09-15T09:44:01.315Z,26.59
2017-09-15T09:46:27.638Z,26.84
2017-09-15T09:48:53.945Z,27.10
2017-09-15T09:51:20.503Z,25.67
2017-09-15T09:53:46.841Z,27.31
2017-09-15T09:56:13.164Z,27.57
2017-09-15T09:58:39.872Z,26.35
2017-09-15T10:01:06.172Z,25.95
2017-09-15T10:03:32.535Z,27.21
2017-09-15T10:05:58.902Z,26.65
2017-09-15T10:08:25.571Z,26.24
2017-09-15T10:10:51.778Z,26.87
2017-09-15T10:13:18.233Z,27.06
2017-09-15T10:15:44.526Z,27.76
2017-09-15T10:18:10.770Z,27.62
2017-09-15T10:20:37.002Z,27.09
2017-09-15T10:23:04.175Z,26.55
2017-09-15T10:25:30.368Z,26.70
2017-09-15T10:27:57.422Z,27.38
2017-09-15T10:30:23.879Z,26.66
2017-09-15T10:32:50.186Z,26.99
2017-09-15T10:35:16.836Z,27.02
2017-09-15T10:37:43.277Z,26.56
2017-09-15T10:40:09.592Z,26.99
2017-09-15T10:42:35.812Z,26.64
2017-09-15T10:45:02.151Z,26.91
2017-09-15T10:47:28.388Z,26.70
2017-09-15T10:49:54.757Z,26.13
2017-09-15T10:52:21.037Z,26.42
2017-09-15T10:54:47.290Z,26.37
2017-09-15T10:57:13.621Z,25.10
2017-09-15T10:59:39.962Z,25.83
2017-09-15T11:02:06.781Z,25.16
2017-09-15T11:04:33.427Z,25.59
2017-09-15T11:06:59.766Z,24.62
2017-09-15T11:09:25.973Z,25.41
2017-09-15T11:11:52.419Z,26.57
2017-09-15T11:14:18.777Z,28.06
2017-09-15T11:16:45.185Z,27.67
2017-09-15T11:19:11.432Z,27.03
2017-09-15T11:21:38.055Z,26.94
2017-09-15T11:24:04.302Z,26.46
2017-09-15T11:26:31.246Z,26.74
2017-09-15T11:28:57.562Z,25.73
2017-09-15T11:31:23.827Z,25.91
2017-09-15T11:33:50.035Z,24.79
2017-09-15T11:36:16.362Z,24.67
2017-09-15T11:38:42.611Z,24.79
2017-09-15T11:41:09.150Z,24.75
2017-09-15T11:43:35.462Z,24.18
2017-09-15T11:46:02.100Z,24.45
2017-09-15T11:48:28.859Z,23.99
2017-09-15T11:50:55.187Z,24.91
2017-09-15T11:53:21.536Z,24.00
2017-09-15T11:55:48.057Z,23.53
2017-09-15T11:58:14.405Z,23.02
2017-09-15T12:00:41.335Z,22.96
2017-09-15T12:03:07.640Z,23.12
2017-09-15T12:05:34.095Z,22.42
2017-09-15T12:08:00.434Z,22.75
2017-09-15T12:10:26.801Z,22.76
2017-09-15T12:12:53.195Z,23.75
2017-09-15T12:15:19.629Z,23.38
2017-09-15T12:17:46.072Z,23.45
2017-09-15T12:20:12.495Z,22.61
2017-09-15T12:22:38.941Z,24.06
2017-09-15T12:25:05.364Z,22.12
2017-09-15T12:27:31.587Z,22.55
2017-09-15T12:29:57.920Z,22.72
2017-09-15T12:32:24.272Z,23.67
2017-09-15T12:34:50.482Z,23.61
2017-09-15T12:37:16.735Z,23.08
2017-09-15T12:39:43.247Z,23.11
2017-09-15T12:42:09.600Z,23.50
2017-09-15T12:44:35.773Z,22.60
2017-09-15T12:47:02.366Z,21.98
2017-09-15T12:49:28.689Z,23.43
2017-09-15T12:51:54.892Z,22.87
2017-09-15T12:54:21.590Z,21.75
2017-09-15T12:56:47.876Z,21.79
2017-09-15T12:59:14.240Z,22.63
2017-09-15T13:01:41.179Z,22.88
2017-09-15T13:04:07.494Z,23.56
2017-09-15T13:06:33.726Z,23.59
2017-09-15T13:09:00.089Z,23.45
2017-09-15T13:11:26.440Z,22.79
2017-09-15T13:13:52.857Z,22.83
2017-09-15T13:16:19.265Z,22.28
2017-09-15T13:18:45.609Z,22.76
2017-09-15T13:21:12.037Z,22.76
2017-09-15T13:23:38.355Z,22.75
2017-09-15T13:26:05.715Z,22.50
2017-09-15T13:28:32.041Z,22.54
2017-09-15T13:30:58.389Z,22.65
2017-09-15T13:33:24.934Z,22.41
2017-09-15T13:35:51.097Z,22.33
2017-09-15T13:38:17.364Z,21.80
2017-09-15T13:40:43.712Z,21.95
2017-09-15T13:43:10.042Z,22.54
2017-09-15T13:45:36.357Z,22.17
2017-09-15T13:48:02.709Z,21.61
2017-09-15T13:50:29.043Z,22.60
2017-09-15T13:52:55.271Z,21.17
2017-09-15T13:55:21.606Z,22.08
2017-09-15T13:57:48.247Z,22.62
2017-09-15T14:00:14.568Z,22.09
2017-09-15T14:02:41.225Z,22.62
2017-09-15T14:05:07.549Z,21.44
2017-09-15T14:07:33.760Z,21.83
2017-09-15T14:10:00.220Z,21.87
2017-09-15T14:12:27.152Z,21.77
2017-09-15T14:14:53.794Z,21.80
2017-09-15T14:17:20.534Z,21.55
2017-09-15T14:19:47.055Z,21.73
2017-09-15T14:22:14.087Z,21.97
2017-09-15T14:24:40.440Z,22.43
2017-09-15T14:27:07.760Z,22.07
2017-09-15T14:29:34.562Z,22.36
2017-09-15T14:32:00.870Z,21.22
2017-09-15T14:34:27.122Z,21.45
2017-09-15T14:36:53.574Z,20.97
2017-09-15T14:39:19.863Z,21.23
2017-09-15T14:41:46.417Z,21.67
2017-09-15T14:44:15.635Z,21.33
2017-09-15T14:46:43.489Z,21.58
2017-09-15T14:49:10.125Z,21.73
2017-09-15T14:51:36.862Z,22.70
2017-09-15T14:54:03.209Z,23.37
2017-09-15T14:56:29.848Z,23.30
2017-09-15T14:58:56.187Z,22.57
2017-09-15T15:01:22.504Z,22.92
2017-09-15T15:03:48.840Z,23.55
2017-09-15T15:06:15.154Z,24.10
2017-09-15T15:08:41.387Z,24.01
2017-09-15T15:11:07.729Z,23.68
2017-09-15T15:13:34.159Z,23.55
2017-09-15T15:16:00.414Z,23.51
2017-09-15T15:18:26.830Z,23.92
2017-09-15T15:20:53.787Z,24.50
2017-09-15T15:23:20.421Z,24.71
2017-09-15T15:25:46.737Z,25.09
2017-09-15T15:28:13.091Z,25.43
2017-09-15T15:30:39.511Z,25.89
2017-09-15T15:33:05.837Z,25.86
2017-09-15T15:35:32.289Z,26.19
2017-09-15T15:37:58.599Z,26.69
2017-09-15T15:40:24.931Z,27.89
2017-09-15T15:42:51.319Z,28.66
2017-09-15T15:45:18.224Z,29.35
2017-09-15T15:47:44.536Z,31.13
2017-09-15T15:50:10.892Z,32.05
2017-09-15T15:52:37.206Z,32.73
2017-09-15T15:55:03.509Z,33.04
2017-09-15T15:57:29.826Z,33.96
2017-09-15T15:59:56.823Z,34.65
2017-09-15T16:02:23.122Z,34.55
2017-09-15T16:04:49.708Z,35.17
2017-09-15T16:07:16.057Z,34.64
2017-09-15T16:09:42.470Z,35.66
2017-09-15T16:12:09.000Z,36.16
2017-09-15T16:14:35.299Z,36.23
2017-09-15T16:17:01.469Z,36.82
2017-09-15T16:19:27.683Z,36.93
2017-09-15T16:21:53.995Z,37.14
2017-09-15T16:24:20.250Z,37.42
2017-09-15T16:26:46.420Z,37.15
2017-09-15T16:29:12.732Z,37.66
2017-09-15T16:31:38.954Z,38.19
2017-09-15T16:34:05.488Z,38.00
2017-09-15T16:36:31.916Z,38.56
2017-09-15T16:38:58.360Z,38.15
2017-09-15T16:41:24.560Z,38.56
2017-09-15T16:43:51.007Z,38.18
2017-09-15T16:46:17.215Z,38.75
2017-09-15T16:48:43.533Z,38.46
2017-09-15T16:51:09.990Z,38.49
2017-09-15T16:53:36.605Z,38.99
2017-09-15T16:56:02.983Z,39.17
2017-09-15T16:58:29.484Z,39.19
2017-09-15T17:00:55.747Z,39.39
2017-09-15T17:03:22.380Z,40.37
2017-09-15T17:05:48.611Z,41.01
2017-09-15T17:08:15.552Z,41.33
2017-09-15T17:10:42.098Z,41.69
2017-09-15T17:13:08.437Z,42.08
2017-09-15T17:15:35.174Z,42.29
2017-09-15T17:18:01.484Z,42.78
2017-09-15T17:20:27.801Z,42.97
2017-09-15T17:22:54.282Z,43.11
2017-09-15T17:25:20.510Z,43.04
2017-09-15T17:27:47.139Z,44.33
2017-09-15T17:30:13.351Z,43.93
2017-09-15T17:32:39.513Z,43.83
2017-09-15T17:35:06.043Z,44.29
2017-09-15T17:37:32.326Z,44.82
2017-09-15T17:39:58.889Z,45.08
2017-09-15T17:42:25.137Z,43.12
2017-09-15T17:44:51.473Z,41.62
2017-09-15T17:47:17.791Z,40.96
2017-09-15T17:49:44.127Z,40.78
2017-09-15T17:52:10.734Z,41.99
2017-09-15T17:54:37.004Z,42.88
2017-09-15T17:57:03.331Z,44.00
2017-09-15T17:59:29.770Z,44.24
2017-09-15T18:01:56.311Z,44.83
2017-09-15T18:04:22.837Z,45.85
2017-09-15T18:06:49.370Z,47.19
2017-09-15T18:09:15.703Z,47.60
2017-09-15T18:11:41.928Z,48.42
2017-09-15T18:14:08.467Z,49.11
2017-09-15T18:16:34.714Z,49.59
2017-09-15T18:19:01.139Z,50.08
2017-09-15T18:21:27.674Z,49.57
2017-09-15T18:23:54.731Z,50.29
2017-09-15T18:26:21.149Z,50.77
2017-09-15T18:28:47.491Z,50.92
2017-09-15T18:31:13.975Z,49.80
2017-09-15T18:33:40.347Z,48.90
2017-09-15T18:36:07.003Z,49.17
2017-09-15T18:38:33.532Z,47.87
2017-09-15T18:41:00.255Z,47.96
2017-09-15T18:43:26.468Z,49.95
2017-09-15T18:45:52.936Z,51.55
2017-09-15T18:48:19.537Z,52.92
2017-09-15T18:50:45.893Z,52.67
2017-09-15T18:53:12.139Z,53.01
2017-09-15T18:55:38.699Z,53.90
2017-09-15T18:58:05.023Z,53.62
2017-09-15T19:00:31.346Z,54.25
2017-09-15T19:02:57.695Z,54.61
2017-09-15T19:05:23.996Z,54.10
2017-09-15T19:07:50.208Z,55.59
2017-09-15T19:10:17.387Z,54.14
2017-09-15T19:12:44.419Z,53.38
2017-09-15T19:15:10.868Z,53.91
2017-09-15T19:17:37.298Z,53.70
2017-09-15T19:20:03.749Z,55.59
2017-09-15T19:22:30.271Z,54.82
2017-09-15T19:24:56.705Z,55.83
2017-09-15T19:27:23.238Z,55.67
2017-09-15T19:29:49.467Z,55.67
2017-09-15T19:32:16.118Z,56.20
2017-09-15T19:34:42.325Z,57.11
2017-09-15T19:37:08.876Z,57.22
2017-09-15T19:39:35.200Z,56.74
2017-09-15T19:42:02.050Z,58.47
2017-09-15T19:44:28.988Z,59.34
2017-09-15T19:46:55.330Z,59.44
2017-09-15T19:49:21.663Z,59.71
2017-09-15T19:51:48.204Z,59.88
2017-09-15T19:54:14.528Z,60.89
2017-09-15T19:56:40.923Z,60.18
2017-09-15T19:59:07.201Z,59.57
2017-09-15T20:01:33.388Z,58.03
2017-09-15T20:03:59.646Z,57.95
2017-09-15T20:06:25.878Z,58.70
2017-09-15T20:08:52.237Z,59.00
2017-09-15T20:11:18.550Z,59.89
2017-09-15T20:13:45.207Z,59.76
2017-09-15T20:16:11.647Z,60.21
2017-09-15T20:18:37.963Z,60.15
2017-09-15T20:21:04.288Z,60.64
2017-09-15T20:23:30.513Z,61.44
2017-09-15T20:25:56.779Z,61.20
2017-09-15T20:28:22.957Z,61.56
2017-09-15T20:30:49.408Z,61.58
2017-09-15T20:33:15.740Z,62.36
2017-09-15T20:35:42.478Z,62.44
2017-09-15T20:38:08.924Z,61.23
2017-09-15T20:40:35.482Z,62.07
2017-09-15T20:43:01.916Z,62.51
2017-09-15T20:45:28.238Z,63.42
2017-09-15T20:47:55.178Z,62.25
2017-09-15T20:50:21.401Z,64.15
2017-09-15T20:52:47.640Z,63.57
2017-09-15T20:55:14.258Z,62.38
2017-09-15T20:57:40.607Z,61.42
2017-09-15T21:00:06.937Z,61.39
2017-09-15T21:02:33.252Z,62.00
2017-09-15T21:04:59.685Z,61.65
2017-09-15T21:07:26.023Z,61.26
2017-09-15T21:09:52.547Z,61.90
2017-09-15T21:12:18.907Z,63.95
2017-09-15T21:14:45.140Z,64.74
2017-09-15T21:17:11.455Z,65.18
2017-09-15T21:19:37.890Z,65.15
2017-09-15T21:22:04.428Z,65.34
2017-09-15T21:24:30.762Z,65.40
2017-09-15T21:26:57.098Z,66.85
2017-09-15T21:29:23.834Z,65.99
2017-09-15T21:31:50.074Z,66.43
2017-09-15T21:34:16.300Z,65.45
2017-09-15T21:36:42.925Z,65.80
2017-09-15T21:39:09.364Z,66.25
2017-09-15T21:41:35.710Z,66.23
2017-09-15T21:44:01.952Z,66.07
2017-09-15T21:46:28.681Z,66.84
2017-09-15T21:48:55.023Z,66.76
2017-09-15T21:51:21.457Z,66.93
2017-09-15T21:53:47.762Z,67.39
2017-09-15T21:56:14.120Z,67.29
2017-09-15T21:58:40.644Z,67.23
2017-09-15T22:01:06.968Z,67.61
2017-09-15T22:03:33.310Z,67.94
2017-09-15T22:05:59.730Z,68.20
2017-09-15T22:08:26.069Z,66.45
2017-09-15T22:10:52.857Z,67.55
2017-09-15T22:13:19.139Z,67.26
2017-09-15T22:15:45.362Z,67.18
2017-09-15T22:18:12.027Z,67.40
2017-09-15T22:20:38.386Z,67.66
2017-09-15T22:23:04.567Z,68.62
2017-09-15T22:25:30.806Z,68.73
2017-09-15T22:27:57.345Z,69.03
2017-09-15T22:30:23.667Z,69.52
2017-09-15T22:32:49.993Z,69.57
2017-09-15T22:35:16.364Z,69.89
2017-09-15T22:37:42.568Z,69.92
2017-09-15T22:40:08.905Z,71.29
2017-09-15T22:42:35.127Z,70.69
2017-09-15T22:45:01.468Z,70.45
2017-09-15T22:47:28.205Z,71.18
2017-09-15T22:49:54.544Z,71.00
2017-09-15T22:52:20.771Z,71.24
2017-09-15T22:54:46.997Z,72.74
2017-09-15T22:57:13.645Z,72.97
2017-09-15T22:59:39.964Z,73.06
2017-09-15T23:02:06.505Z,74.03
2017-09-15T23:04:32.741Z,72.07
2017-09-15T23:06:59.064Z,71.31
2017-09-15T23:09:25.401Z,71.37
2017-09-15T23:11:51.733Z,71.31
2017-09-15T23:14:18.089Z,70.94
2017-09-15T23:16:44.407Z,70.98
2017-09-15T23:19:10.721Z,71.54
2017-09-15T23:21:37.051Z,71.70
2017-09-15T23:24:03.404Z,72.20
2017-09-15T23:26:29.814Z,72.52
2017-09-15T23:28:56.050Z,74.15
2017-09-15T23:31:22.386Z,73.43
2017-09-15T23:33:48.601Z,72.62
2017-09-15T23:36:14.834Z,71.96
2017-09-15T23:38:41.177Z,72.58
2017-09-15T23:41:07.517Z,71.54
2017-09-15T23:43:33.826Z,71.90
2017-09-15T23:46:00.594Z,71.88
2017-09-15T23:48:26.919Z,71.78
2017-09-15T23:50:53.880Z,71.54
2017-09-15T23:53:20.511Z,71.02
2017-09-15T23:55:46.719Z,71.41
2017-09-15T23:58:13.080Z,72.09
